Pagrindinis puslapis
METAR-TAF:

METAR-TAF

Oro uostai :

Chartumas, Sudanas

platuma: 15-36N, ilguma: 032-33E, Aukštis: 382 m

Dabartinis oras

Ataskaita buvo paskelbta 32 minutes, ne 23:00 UTC
Vėjas 9 kt iš Pietų/Pietvakarių
Temperatūra 32°C
Drėgmė 46%
Slėgis 1007 hPa
Matomumas 10 km arba daugiau
nėra debesų žemiau 1500 m ir nėra kamuolinių lietaus debesų

METAR: HSSS 202300Z 20009KT CAVOK 32/19 Q1007 NOSIG

Laikas: 02:32 (23:32 UTC)

Prognozė

Ataskaita buvo paskelbta 6 valandos ir 32 minutes, ne 17:00 UTC
Prognozė galioja nuo 20 metu 18 UTC su 21 metu 24 UTC
Vėjas 8 kt iš Pietų/Pietvakarių su gūsio iki 18 kt
Matomumas 10 km arba daugiau
nėra debesų žemiau 1500 m ir nėra kamuolinių lietaus debesų

TAF: HSSS 201700Z 2018/2124 20008G18KT 9999 CAVOK

Orai ataskaitas ir orų prognozės (METAR, TAF).

turimą stotys yra geltonos ir raudonos taškus žemėlapyje.

Perkelti pele per norėdami pamatyti stoties vardą.

Tada spustelėkite, norėdami matyti oro stebėjimo ir prognozės.

Norėdami pakeisti žemėlapį: spustelėkite ant žalios mygtukų su juodo kryžiaus žemyn,; žalią mygtuką su brūkšneliu, jei norite nutolinti; arba žalių rodyklių gretimoms žemėlapius.


METAR-TAF: